createdAt,value
2019-03-20T00:00:48.222Z,3.20
2019-03-20T00:03:17.406Z,3.30
2019-03-20T00:05:46.667Z,3.40
2019-03-20T00:08:15.895Z,3.30
2019-03-20T00:10:45.192Z,3.20
2019-03-20T00:13:14.432Z,3.20
2019-03-20T00:15:43.708Z,3.30
2019-03-20T00:18:12.988Z,3.20
2019-03-20T00:20:42.150Z,3.10
2019-03-20T00:23:11.471Z,3.20
2019-03-20T00:25:40.913Z,3.10
2019-03-20T00:28:10.081Z,3.30
2019-03-20T00:30:39.338Z,3.20
2019-03-20T00:33:08.743Z,3.00
2019-03-20T00:35:37.893Z,2.80
2019-03-20T00:38:07.075Z,2.70
2019-03-20T00:40:36.225Z,2.70
2019-03-20T00:43:05.595Z,2.80
2019-03-20T00:45:34.759Z,2.70
2019-03-20T00:48:04.020Z,2.70
2019-03-20T00:50:33.241Z,2.60
2019-03-20T00:53:02.381Z,2.70
2019-03-20T00:55:31.573Z,2.80
2019-03-20T00:58:00.735Z,2.70
2019-03-20T01:00:29.961Z,2.80
2019-03-20T01:02:59.208Z,2.80
2019-03-20T01:05:28.414Z,2.80
2019-03-20T01:07:57.589Z,2.70
2019-03-20T01:10:26.804Z,2.70
2019-03-20T01:12:55.961Z,2.70
2019-03-20T01:15:26.972Z,2.70
2019-03-20T01:17:56.165Z,2.70
2019-03-20T01:20:25.560Z,2.70
2019-03-20T01:22:54.785Z,2.60
2019-03-20T01:25:24.071Z,2.70
2019-03-20T01:27:53.316Z,2.70
2019-03-20T01:30:33.075Z,2.70
2019-03-20T01:33:03.609Z,2.70
2019-03-20T01:35:32.868Z,2.30
2019-03-20T01:38:02.067Z,2.30
2019-03-20T01:40:31.266Z,2.10
2019-03-20T01:43:00.441Z,2.20
2019-03-20T01:45:29.696Z,2.10
2019-03-20T01:47:59.574Z,2.20
2019-03-20T01:50:28.874Z,2.20
2019-03-20T01:52:58.053Z,2.20
2019-03-20T01:55:27.315Z,2.20
2019-03-20T01:57:56.465Z,2.30
2019-03-20T02:00:25.646Z,2.30
2019-03-20T02:02:54.871Z,2.30
2019-03-20T02:05:34.715Z,2.20
2019-03-20T02:07:55.049Z,2.10
2019-03-20T02:10:24.201Z,1.90
2019-03-20T02:12:53.370Z,2.10
2019-03-20T02:15:23.996Z,1.90
2019-03-20T02:17:53.175Z,1.90
2019-03-20T02:20:22.332Z,1.90
2019-03-20T02:22:51.556Z,1.90
2019-03-20T02:25:20.703Z,1.80
2019-03-20T02:27:49.877Z,1.80
2019-03-20T02:30:19.242Z,1.80
2019-03-20T02:32:48.426Z,1.70
2019-03-20T02:35:17.695Z,1.60
2019-03-20T02:37:46.863Z,1.60
2019-03-20T02:40:16.120Z,1.70
2019-03-20T02:42:45.300Z,1.70
2019-03-20T02:45:15.072Z,1.60
2019-03-20T02:47:45.423Z,1.60
2019-03-20T02:50:15.137Z,1.50
2019-03-20T02:52:44.287Z,1.50
2019-03-20T02:55:13.682Z,1.50
2019-03-20T02:57:42.924Z,1.60
2019-03-20T03:00:13.747Z,1.70
2019-03-20T03:02:42.942Z,1.70
2019-03-20T03:05:12.600Z,1.80
2019-03-20T03:07:42.045Z,1.80
2019-03-20T03:10:11.527Z,1.90
2019-03-20T03:12:40.681Z,1.90
2019-03-20T03:15:10.219Z,2.00
2019-03-20T03:17:39.435Z,1.90
2019-03-20T03:20:10.325Z,1.70
2019-03-20T03:22:39.489Z,1.70
2019-03-20T03:25:08.879Z,1.70
2019-03-20T03:27:38.073Z,1.50
2019-03-20T03:30:07.659Z,1.50
2019-03-20T03:32:36.877Z,1.50
2019-03-20T03:35:06.337Z,1.40
2019-03-20T03:37:35.490Z,1.40
2019-03-20T03:40:06.188Z,1.20
2019-03-20T03:42:35.588Z,1.30
2019-03-20T03:45:05.386Z,1.30
2019-03-20T03:47:34.582Z,1.30
2019-03-20T03:50:04.114Z,1.20
2019-03-20T03:52:33.272Z,1.30
2019-03-20T03:55:02.443Z,1.30
2019-03-20T03:57:31.597Z,1.40
2019-03-20T04:00:00.751Z,1.40
2019-03-20T04:02:29.965Z,1.40
2019-03-20T04:04:59.229Z,1.40
2019-03-20T04:07:28.512Z,1.50
2019-03-20T04:09:57.636Z,1.50
2019-03-20T04:12:27.993Z,1.50
2019-03-20T04:14:57.204Z,1.40
2019-03-20T04:17:27.827Z,1.50
2019-03-20T04:19:56.965Z,1.50
2019-03-20T04:22:26.110Z,1.50
2019-03-20T04:24:55.344Z,1.50
2019-03-20T04:27:24.801Z,1.30
2019-03-20T04:29:54.029Z,1.40
2019-03-20T04:32:23.235Z,1.50
2019-03-20T04:34:52.460Z,1.40
2019-03-20T04:37:21.679Z,1.30
2019-03-20T04:39:50.859Z,1.40
2019-03-20T04:42:20.090Z,1.30
2019-03-20T04:44:49.225Z,1.20
2019-03-20T04:47:18.471Z,1.10
2019-03-20T04:49:47.666Z,1.00
2019-03-20T04:52:16.851Z,1.00
2019-03-20T04:54:46.033Z,1.10
2019-03-20T04:57:15.231Z,1.20
2019-03-20T04:59:44.350Z,1.20
2019-03-20T05:02:13.515Z,1.20
2019-03-20T05:04:42.662Z,1.30
2019-03-20T05:07:11.813Z,1.30
2019-03-20T05:09:40.950Z,1.30
2019-03-20T05:12:10.108Z,1.30
2019-03-20T05:14:39.315Z,1.20
2019-03-20T05:17:08.462Z,1.30
2019-03-20T05:19:37.716Z,1.30
2019-03-20T05:22:06.861Z,1.20
2019-03-20T05:24:36.060Z,1.40
2019-03-20T05:27:05.356Z,1.30
2019-03-20T05:29:34.517Z,1.30
2019-03-20T05:32:03.690Z,1.20
2019-03-20T05:34:32.932Z,1.40
2019-03-20T05:37:10.250Z,1.30
2019-03-20T05:39:33.073Z,1.30
2019-03-20T05:42:02.397Z,1.30
2019-03-20T05:44:31.556Z,1.30
2019-03-20T05:47:00.811Z,1.30
2019-03-20T05:49:30.036Z,1.30
2019-03-20T05:51:59.271Z,1.30
2019-03-20T05:54:28.393Z,1.30
2019-03-20T05:56:57.532Z,1.20
2019-03-20T05:59:26.848Z,1.10
2019-03-20T06:01:56.071Z,1.10
2019-03-20T06:04:25.360Z,1.00
2019-03-20T06:06:54.621Z,0.90
2019-03-20T06:09:23.873Z,0.80
2019-03-20T06:11:53.148Z,0.70
2019-03-20T06:14:22.397Z,0.80
2019-03-20T06:16:51.579Z,0.90
2019-03-20T06:19:20.858Z,0.90
2019-03-20T06:21:50.085Z,1.10
2019-03-20T06:24:19.218Z,1.00
2019-03-20T06:26:48.403Z,1.00
2019-03-20T06:29:19.997Z,0.90
2019-03-20T06:31:48.540Z,0.90
2019-03-20T06:34:17.684Z,0.90
2019-03-20T06:36:46.921Z,1.00
2019-03-20T06:39:16.177Z,0.90
2019-03-20T06:41:45.500Z,0.90
2019-03-20T06:44:14.760Z,0.90
2019-03-20T06:46:44.019Z,0.80
2019-03-20T06:49:13.218Z,0.90
2019-03-20T06:51:42.402Z,1.00
2019-03-20T06:54:11.530Z,1.20
2019-03-20T06:56:40.776Z,1.30
2019-03-20T06:59:48.512Z,1.30
2019-03-20T07:02:18.848Z,1.20
2019-03-20T07:05:06.069Z,1.30
2019-03-20T07:07:43.888Z,1.30
2019-03-20T07:10:40.442Z,1.50
2019-03-20T07:13:09.612Z,1.50
2019-03-20T07:15:38.778Z,1.60
2019-03-20T07:18:08.071Z,1.70
2019-03-20T07:20:37.205Z,1.80
2019-03-20T07:23:06.442Z,1.90
2019-03-20T07:25:36.999Z,2.20
2019-03-20T07:28:06.144Z,2.40
2019-03-20T07:30:35.324Z,2.70
2019-03-20T07:33:04.482Z,2.90
2019-03-20T07:35:33.648Z,3.10
2019-03-20T07:38:02.805Z,3.40
2019-03-20T07:40:32.071Z,3.70
2019-03-20T07:43:08.658Z,3.70
2019-03-20T07:45:35.036Z,4.00
2019-03-20T07:48:04.181Z,4.40
2019-03-20T07:50:33.369Z,4.50
2019-03-20T07:53:02.578Z,4.80
2019-03-20T07:55:31.772Z,4.80
2019-03-20T07:58:00.957Z,5.00
2019-03-20T08:00:30.123Z,5.30
2019-03-20T08:02:59.376Z,5.50
2019-03-20T08:05:29.647Z,5.40
2019-03-20T08:08:07.367Z,5.70
2019-03-20T08:10:30.184Z,5.80
2019-03-20T08:12:59.770Z,6.00
2019-03-20T08:15:28.956Z,5.70
2019-03-20T08:17:58.200Z,6.10
2019-03-20T08:20:27.494Z,6.30
2019-03-20T08:22:59.485Z,6.40
2019-03-20T08:25:28.637Z,6.40
2019-03-20T08:27:58.361Z,6.30
2019-03-20T08:30:27.572Z,6.10
2019-03-20T08:32:56.737Z,6.30
2019-03-20T08:35:25.941Z,6.50
2019-03-20T08:37:55.093Z,6.80
2019-03-20T08:40:24.349Z,6.30
2019-03-20T08:42:53.586Z,6.10
2019-03-20T08:45:22.783Z,6.20
2019-03-20T08:47:52.067Z,6.40
2019-03-20T08:50:21.321Z,6.00
2019-03-20T08:52:50.473Z,6.00
2019-03-20T08:55:19.875Z,6.00
2019-03-20T08:57:49.378Z,6.20
2019-03-20T09:00:19.111Z,6.10
2019-03-20T09:02:48.440Z,6.30
2019-03-20T09:05:17.892Z,6.30
2019-03-20T09:07:47.753Z,6.70
2019-03-20T09:10:18.753Z,6.90
2019-03-20T09:12:48.336Z,6.70
2019-03-20T09:15:19.029Z,6.70
2019-03-20T09:17:48.200Z,6.60
2019-03-20T09:20:17.449Z,6.80
2019-03-20T09:22:46.733Z,6.90
2019-03-20T09:25:16.866Z,7.00
2019-03-20T09:27:46.069Z,7.00
2019-03-20T09:30:20.704Z,7.00
2019-03-20T09:32:49.879Z,7.00
2019-03-20T09:35:19.272Z,7.10
2019-03-20T09:37:52.189Z,7.40
2019-03-20T09:40:19.765Z,7.40
2019-03-20T09:42:48.905Z,7.50
2019-03-20T09:45:18.174Z,7.60
2019-03-20T09:47:48.436Z,7.80
2019-03-20T09:50:18.125Z,7.90
2019-03-20T09:52:47.330Z,8.10
2019-03-20T09:55:16.658Z,8.20
2019-03-20T09:57:45.842Z,8.30
2019-03-20T10:00:17.656Z,8.30
2019-03-20T10:02:47.993Z,8.50
2019-03-20T10:05:17.265Z,8.80
2019-03-20T10:07:46.467Z,8.80
2019-03-20T10:10:21.165Z,9.00
2019-03-20T10:12:50.325Z,9.30
2019-03-20T10:15:19.720Z,9.50
2019-03-20T10:17:48.864Z,9.60
2019-03-20T10:20:19.088Z,9.70
2019-03-20T10:22:48.349Z,9.90
2019-03-20T10:25:17.824Z,10.10
2019-03-20T10:27:46.971Z,10.20
2019-03-20T10:30:21.703Z,10.20
2019-03-20T10:32:50.900Z,10.20
2019-03-20T10:35:20.227Z,10.40
2019-03-20T10:37:49.386Z,10.60
2019-03-20T10:40:19.990Z,10.70
2019-03-20T10:42:49.468Z,10.90
2019-03-20T10:45:22.115Z,11.10
2019-03-20T10:47:53.072Z,11.30
2019-03-20T10:50:22.301Z,11.50
2019-03-20T10:52:51.439Z,11.50
2019-03-20T10:55:20.763Z,11.70
2019-03-20T10:57:49.913Z,12.00
2019-03-20T11:00:20.131Z,12.30
2019-03-20T11:02:49.310Z,12.20
2019-03-20T11:05:18.775Z,12.30
2019-03-20T11:07:48.117Z,12.50
2019-03-20T11:10:21.916Z,12.40
2019-03-20T11:12:51.214Z,12.40
2019-03-20T11:15:20.391Z,12.30
2019-03-20T11:17:49.637Z,12.40
2019-03-20T11:20:18.936Z,12.40
2019-03-20T11:22:48.345Z,12.30
2019-03-20T11:25:18.520Z,12.60
2019-03-20T11:27:47.739Z,12.80
2019-03-20T11:30:21.492Z,12.60
2019-03-20T11:32:50.678Z,12.90
2019-03-20T11:35:19.812Z,13.40
2019-03-20T11:37:49.035Z,13.60
2019-03-20T11:40:20.775Z,13.60
2019-03-20T11:42:49.962Z,13.80
2019-03-20T11:45:19.134Z,13.90
2019-03-20T11:47:48.457Z,14.00
2019-03-20T11:50:20.435Z,14.10
2019-03-20T11:52:49.625Z,13.70
2019-03-20T11:55:18.873Z,13.10
2019-03-20T11:57:48.123Z,13.10
2019-03-20T12:00:18.100Z,12.80
2019-03-20T12:02:47.333Z,12.50
2019-03-20T12:05:16.471Z,12.80
2019-03-20T12:07:45.726Z,13.20
2019-03-20T12:10:18.756Z,13.10
2019-03-20T12:12:47.996Z,13.00
2019-03-20T12:15:17.236Z,13.40
2019-03-20T12:17:46.485Z,13.90
2019-03-20T12:20:18.661Z,14.30
2019-03-20T12:22:49.161Z,14.50
2019-03-20T12:25:23.012Z,14.50
2019-03-20T12:27:52.226Z,14.10
2019-03-20T12:30:23.270Z,14.10
2019-03-20T12:32:52.428Z,13.50
2019-03-20T12:35:21.811Z,13.90
2019-03-20T12:37:51.024Z,13.90
2019-03-20T12:40:22.215Z,14.00
2019-03-20T12:42:51.564Z,13.60
2019-03-20T12:45:23.483Z,13.80
2019-03-20T12:47:52.642Z,14.10
2019-03-20T12:50:21.775Z,13.50
2019-03-20T12:52:51.086Z,13.70
2019-03-20T12:55:20.359Z,13.90
2019-03-20T12:57:49.608Z,13.70
2019-03-20T13:00:20.316Z,13.80
2019-03-20T13:02:49.619Z,13.60
2019-03-20T13:05:19.169Z,13.00
2019-03-20T13:07:48.432Z,13.30
2019-03-20T13:10:18.849Z,13.60
2019-03-20T13:12:48.251Z,13.80
2019-03-20T13:15:23.212Z,13.50
2019-03-20T13:17:52.551Z,13.50
2019-03-20T13:20:21.980Z,13.80
2019-03-20T13:23:06.656Z,13.90
2019-03-20T13:25:35.818Z,13.90
2019-03-20T13:28:05.057Z,13.80
2019-03-20T13:30:40.443Z,13.70
2019-03-20T13:33:09.632Z,13.70
2019-03-20T13:35:38.808Z,13.30
2019-03-20T13:38:08.141Z,13.10
2019-03-20T13:40:37.281Z,13.30
2019-03-20T13:43:06.582Z,13.40
2019-03-20T13:45:35.857Z,13.40
2019-03-20T13:48:05.140Z,13.10
2019-03-20T13:50:34.323Z,13.50
2019-03-20T13:53:03.500Z,13.40
2019-03-20T13:55:32.740Z,13.30
2019-03-20T13:58:01.957Z,12.90
2019-03-20T14:00:31.165Z,13.10
2019-03-20T14:03:00.382Z,12.90
2019-03-20T14:05:29.588Z,13.10
2019-03-20T14:07:58.831Z,12.90
2019-03-20T14:10:28.290Z,12.70
2019-03-20T14:12:57.536Z,12.70
2019-03-20T14:15:26.693Z,12.80
2019-03-20T14:17:55.860Z,12.80
2019-03-20T14:20:25.210Z,13.00
2019-03-20T14:22:54.383Z,13.20
2019-03-20T14:25:23.849Z,13.40
2019-03-20T14:27:53.191Z,13.30
2019-03-20T14:30:24.384Z,13.50
2019-03-20T14:32:53.633Z,13.10
2019-03-20T14:35:22.929Z,13.10
2019-03-20T14:37:52.377Z,13.00
2019-03-20T14:40:23.851Z,12.80
2019-03-20T14:42:53.031Z,12.80
2019-03-20T14:45:22.317Z,12.60
2019-03-20T14:47:51.483Z,12.60
2019-03-20T14:50:22.480Z,12.50
2019-03-20T14:52:51.648Z,12.30
2019-03-20T14:55:20.936Z,12.40
2019-03-20T14:57:50.268Z,12.50
2019-03-20T15:00:21.247Z,12.70
2019-03-20T15:02:50.440Z,12.70
2019-03-20T15:05:19.807Z,12.60
2019-03-20T15:07:48.937Z,12.80
2019-03-20T15:10:19.381Z,12.80
2019-03-20T15:12:48.644Z,12.80
2019-03-20T15:15:30.318Z,12.70
2019-03-20T15:17:59.477Z,12.50
2019-03-20T15:20:28.669Z,12.50
2019-03-20T15:22:57.840Z,12.50
2019-03-20T15:25:27.126Z,12.50
2019-03-20T15:27:56.405Z,12.30
2019-03-20T15:30:27.051Z,12.40
2019-03-20T15:32:56.256Z,12.40
2019-03-20T15:35:25.453Z,12.40
2019-03-20T15:37:54.607Z,12.40
2019-03-20T15:40:23.805Z,12.20
2019-03-20T15:42:53.210Z,12.20
2019-03-20T15:45:22.381Z,12.30
2019-03-20T15:47:51.662Z,12.30
2019-03-20T15:50:21.089Z,12.30
2019-03-20T15:52:50.287Z,12.30
2019-03-20T15:55:24.163Z,12.20
2019-03-20T15:57:54.879Z,12.20
2019-03-20T16:00:24.133Z,12.10
2019-03-20T16:02:54.835Z,12.10
2019-03-20T16:05:24.073Z,12.10
2019-03-20T16:07:54.877Z,12.20
2019-03-20T16:10:24.120Z,12.10
2019-03-20T16:12:53.317Z,12.10
2019-03-20T16:15:22.521Z,12.20
2019-03-20T16:17:51.777Z,12.10
2019-03-20T16:20:21.017Z,12.10
2019-03-20T16:22:50.299Z,11.90
2019-03-20T16:25:19.560Z,11.90
2019-03-20T16:27:48.712Z,11.90
2019-03-20T16:30:19.525Z,11.90
2019-03-20T16:32:48.878Z,11.80
2019-03-20T16:35:18.228Z,11.80
2019-03-20T16:37:47.453Z,11.80
2019-03-20T16:40:18.392Z,11.80
2019-03-20T16:42:47.928Z,11.80
2019-03-20T16:45:19.449Z,11.80
2019-03-20T16:47:48.632Z,11.70
2019-03-20T16:50:18.040Z,11.70
2019-03-20T16:52:47.183Z,11.60
2019-03-20T16:55:16.416Z,11.70
2019-03-20T16:57:45.709Z,11.60
2019-03-20T17:00:20.194Z,11.60
2019-03-20T17:02:49.476Z,11.60
2019-03-20T17:05:18.825Z,11.60
2019-03-20T17:07:48.007Z,11.50
2019-03-20T17:10:19.991Z,11.40
2019-03-20T17:12:49.263Z,11.40
2019-03-20T17:15:20.592Z,11.40
2019-03-20T17:17:49.757Z,11.30
2019-03-20T17:20:19.126Z,11.30
2019-03-20T17:22:48.321Z,11.20
2019-03-20T17:25:17.487Z,11.20
2019-03-20T17:27:47.740Z,11.20
2019-03-20T17:30:19.348Z,11.30
2019-03-20T17:32:48.584Z,11.20
2019-03-20T17:35:17.824Z,11.10
2019-03-20T17:37:47.103Z,11.10
2019-03-20T17:40:17.240Z,11.10
2019-03-20T17:42:47.993Z,11.00
2019-03-20T17:45:19.214Z,11.00
2019-03-20T17:47:48.404Z,10.90
2019-03-20T17:50:19.998Z,10.80
2019-03-20T17:52:49.238Z,10.70
2019-03-20T17:55:18.468Z,10.60
2019-03-20T17:57:47.715Z,10.70
2019-03-20T18:00:24.560Z,10.60
2019-03-20T18:02:53.892Z,10.60
2019-03-20T18:05:23.186Z,10.50
2019-03-20T18:07:52.449Z,10.30
2019-03-20T18:10:23.135Z,10.30
2019-03-20T18:12:52.476Z,10.20
2019-03-20T18:15:21.718Z,10.20
2019-03-20T18:17:50.926Z,10.10
2019-03-20T18:20:20.297Z,10.00
2019-03-20T18:22:49.489Z,10.00
2019-03-20T18:25:18.717Z,10.00
2019-03-20T18:27:47.904Z,9.90
2019-03-20T18:30:19.280Z,9.90
2019-03-20T18:32:48.544Z,9.80
2019-03-20T18:35:17.969Z,9.70
2019-03-20T18:37:47.395Z,9.60
2019-03-20T18:40:17.513Z,9.60
2019-03-20T18:42:47.408Z,9.60
2019-03-20T18:45:18.011Z,9.50
2019-03-20T18:47:47.385Z,9.50
2019-03-20T18:50:18.572Z,9.50
2019-03-20T18:52:47.921Z,9.40
2019-03-20T18:55:17.130Z,9.30
2019-03-20T18:57:46.715Z,9.30
2019-03-20T19:00:20.927Z,9.20
2019-03-20T19:02:50.697Z,9.20
2019-03-20T19:05:23.030Z,9.20
2019-03-20T19:07:52.233Z,9.10
2019-03-20T19:10:21.468Z,9.00
2019-03-20T19:12:50.736Z,9.00
2019-03-20T19:15:19.957Z,8.90
2019-03-20T19:17:49.211Z,8.80
2019-03-20T19:20:19.962Z,8.70
2019-03-20T19:22:49.452Z,8.70
2019-03-20T19:25:18.799Z,8.60
2019-03-20T19:27:47.941Z,8.70
2019-03-20T19:30:18.949Z,8.70
2019-03-20T19:32:48.345Z,8.60
2019-03-20T19:35:17.577Z,8.50
2019-03-20T19:37:46.904Z,8.50
2019-03-20T19:40:16.419Z,8.40
2019-03-20T19:42:45.586Z,8.30
2019-03-20T19:45:14.804Z,8.30
2019-03-20T19:47:44.155Z,8.30
2019-03-20T19:50:14.111Z,8.20
2019-03-20T19:52:43.453Z,8.20
2019-03-20T19:55:13.071Z,8.00
2019-03-20T19:57:42.396Z,8.00
2019-03-20T20:00:15.515Z,8.00
2019-03-20T20:02:44.676Z,8.10
2019-03-20T20:05:15.883Z,8.20
2019-03-20T20:07:44.935Z,8.00
2019-03-20T20:10:14.724Z,8.00
2019-03-20T20:12:43.897Z,7.90
2019-03-20T20:15:15.533Z,7.80
2019-03-20T20:17:46.922Z,7.70
2019-03-20T20:20:17.124Z,7.70
2019-03-20T20:22:46.420Z,7.60
2019-03-20T20:25:15.722Z,7.60
2019-03-20T20:27:45.314Z,7.60
2019-03-20T20:30:16.021Z,7.60
2019-03-20T20:32:45.291Z,7.60
2019-03-20T20:35:14.624Z,7.60
2019-03-20T20:37:43.887Z,7.50
2019-03-20T20:40:14.660Z,7.40
2019-03-20T20:42:43.960Z,7.40
2019-03-20T20:45:13.604Z,7.40
2019-03-20T20:47:42.986Z,7.30
2019-03-20T20:50:12.548Z,7.30
2019-03-20T20:52:41.758Z,7.30
2019-03-20T20:55:12.047Z,7.20
2019-03-20T20:57:41.325Z,7.30
2019-03-20T21:00:13.947Z,7.20
2019-03-20T21:02:43.220Z,7.00
2019-03-20T21:05:12.585Z,7.00
2019-03-20T21:07:41.841Z,7.10
2019-03-20T21:10:13.442Z,7.00
2019-03-20T21:12:51.208Z,7.00
2019-03-20T21:15:57.093Z,7.00
2019-03-20T21:19:16.961Z,6.90
2019-03-20T21:22:24.442Z,6.80
2019-03-20T21:24:54.136Z,6.80
2019-03-20T21:28:01.828Z,6.80
2019-03-20T21:30:43.702Z,6.70
2019-03-20T21:33:43.011Z,6.60
2019-03-20T21:36:49.035Z,6.70
2019-03-20T21:39:18.732Z,6.50
2019-03-20T21:42:41.436Z,6.40
2019-03-20T21:45:50.173Z,6.40
2019-03-20T21:48:19.864Z,6.40
2019-03-20T21:51:17.945Z,6.40
2019-03-20T21:54:37.632Z,6.30
2019-03-20T21:57:51.829Z,6.30
2019-03-20T22:01:06.012Z,6.30
2019-03-20T22:03:37.328Z,6.20
2019-03-20T22:06:43.738Z,6.10
2019-03-20T22:09:47.396Z,6.10
2019-03-20T22:12:48.461Z,6.10
2019-03-20T22:15:27.133Z,5.90
2019-03-20T22:18:35.297Z,6.00
2019-03-20T22:21:37.189Z,6.00
2019-03-20T22:24:49.813Z,5.80
2019-03-20T22:27:57.305Z,5.80
2019-03-20T22:30:27.067Z,5.90
2019-03-20T22:33:32.131Z,5.60
2019-03-20T22:36:17.418Z,5.60
2019-03-20T22:40:01.600Z,5.70
2019-03-20T22:42:51.372Z,5.70
2019-03-20T22:45:56.680Z,5.70
2019-03-20T22:49:18.783Z,5.60
2019-03-20T22:52:50.264Z,5.60
2019-03-20T22:55:37.030Z,5.50
2019-03-20T22:58:31.330Z,5.50
2019-03-20T23:01:01.017Z,5.60
2019-03-20T23:03:38.343Z,5.40
2019-03-20T23:06:08.099Z,5.30
2019-03-20T23:08:39.623Z,5.00
2019-03-20T23:11:09.395Z,5.00
2019-03-20T23:13:41.729Z,4.90
2019-03-20T23:16:11.823Z,4.80
2019-03-20T23:18:41.591Z,4.70
2019-03-20T23:21:11.365Z,4.70
2019-03-20T23:23:41.858Z,4.80
2019-03-20T23:26:11.619Z,4.80
2019-03-20T23:28:41.706Z,4.80
2019-03-20T23:31:11.503Z,4.60
2019-03-20T23:33:41.174Z,4.30
2019-03-20T23:36:10.859Z,4.50
2019-03-20T23:38:40.669Z,4.50
2019-03-20T23:41:10.416Z,4.60
2019-03-20T23:43:40.260Z,4.70
2019-03-20T23:46:09.973Z,4.80
2019-03-20T23:48:47.001Z,4.70
2019-03-20T23:51:18.326Z,4.70
2019-03-20T23:53:50.904Z,4.50
2019-03-20T23:56:20.641Z,4.50
2019-03-20T23:58:50.420Z,4.50
